sensor_id;sensor_type;location;lat;lon;timestamp;pressure;altitude;pressure_sealevel;temperature
18161;BMP280;9205;52.032;4.314;2022-11-18T00:01:08;99338.19;;;11.09
18161;BMP280;9205;52.032;4.314;2022-11-18T00:03:37;99346.63;;;11.09
18161;BMP280;9205;52.032;4.314;2022-11-18T00:06:06;99338.94;;;11.11
18161;BMP280;9205;52.032;4.314;2022-11-18T00:08:34;99336.56;;;11.08
18161;BMP280;9205;52.032;4.314;2022-11-18T00:11:08;99339.97;;;11.07
18161;BMP280;9205;52.032;4.314;2022-11-18T00:13:39;99340.75;;;11.09
18161;BMP280;9205;52.032;4.314;2022-11-18T00:16:24;99344.00;;;11.11
18161;BMP280;9205;52.032;4.314;2022-11-18T00:18:51;99341.47;;;11.11
18161;BMP280;9205;52.032;4.314;2022-11-18T00:21:18;99355.91;;;11.10
18161;BMP280;9205;52.032;4.314;2022-11-18T00:23:48;99362.75;;;11.08
18161;BMP280;9205;52.032;4.314;2022-11-18T00:26:16;99365.25;;;11.10
18161;BMP280;9205;52.032;4.314;2022-11-18T00:28:43;99362.75;;;11.08
18161;BMP280;9205;52.032;4.314;2022-11-18T00:31:12;99365.50;;;11.04
18161;BMP280;9205;52.032;4.314;2022-11-18T00:33:40;99375.69;;;11.04
18161;BMP280;9205;52.032;4.314;2022-11-18T00:36:11;99378.31;;;11.02
18161;BMP280;9205;52.032;4.314;2022-11-18T00:38:39;99378.38;;;11.01
18161;BMP280;9205;52.032;4.314;2022-11-18T00:41:09;99381.81;;;11.00
18161;BMP280;9205;52.032;4.314;2022-11-18T00:43:38;99394.56;;;10.98
18161;BMP280;9205;52.032;4.314;2022-11-18T00:46:07;99395.53;;;10.96
18161;BMP280;9205;52.032;4.314;2022-11-18T00:48:35;99397.19;;;10.97
18161;BMP280;9205;52.032;4.314;2022-11-18T00:51:08;99404.97;;;10.94
18161;BMP280;9205;52.032;4.314;2022-11-18T00:53:36;99396.56;;;10.92
18161;BMP280;9205;52.032;4.314;2022-11-18T00:56:05;99408.19;;;10.97
18161;BMP280;9205;52.032;4.314;2022-11-18T00:58:32;99408.78;;;11.02
18161;BMP280;9205;52.032;4.314;2022-11-18T01:01:02;99415.59;;;11.02
18161;BMP280;9205;52.032;4.314;2022-11-18T01:03:30;99414.69;;;11.03
18161;BMP280;9205;52.032;4.314;2022-11-18T01:05:57;99425.00;;;11.00
18161;BMP280;9205;52.032;4.314;2022-11-18T01:08:25;99420.81;;;10.99
18161;BMP280;9205;52.032;4.314;2022-11-18T01:10:52;99427.59;;;10.98
18161;BMP280;9205;52.032;4.314;2022-11-18T01:13:21;99435.28;;;10.97
18161;BMP280;9205;52.032;4.314;2022-11-18T01:15:51;99436.19;;;10.96
18161;BMP280;9205;52.032;4.314;2022-11-18T01:18:24;99439.56;;;10.96
18161;BMP280;9205;52.032;4.314;2022-11-18T01:20:52;99439.69;;;10.93
18161;BMP280;9205;52.032;4.314;2022-11-18T01:23:20;99447.91;;;10.98
18161;BMP280;9205;52.032;4.314;2022-11-18T01:25:48;99454.81;;;10.96
18161;BMP280;9205;52.032;4.314;2022-11-18T01:28:17;99456.47;;;10.97
18161;BMP280;9205;52.032;4.314;2022-11-18T01:30:45;99458.91;;;10.99
18161;BMP280;9205;52.032;4.314;2022-11-18T01:33:13;99455.00;;;10.92
18161;BMP280;9205;52.032;4.314;2022-11-18T01:35:43;99462.25;;;10.81
18161;BMP280;9205;52.032;4.314;2022-11-18T01:38:13;99464.53;;;10.87
18161;BMP280;9205;52.032;4.314;2022-11-18T01:40:41;99468.88;;;10.85
18161;BMP280;9205;52.032;4.314;2022-11-18T01:43:12;99467.28;;;10.83
18161;BMP280;9205;52.032;4.314;2022-11-18T01:45:42;99474.84;;;10.84
18161;BMP280;9205;52.032;4.314;2022-11-18T01:48:16;99472.28;;;10.84
18161;BMP280;9205;52.032;4.314;2022-11-18T01:50:51;99479.03;;;10.85
18161;BMP280;9205;52.032;4.314;2022-11-18T01:53:30;99477.38;;;10.84
18161;BMP280;9205;52.032;4.314;2022-11-18T01:56:07;99474.84;;;10.84
18161;BMP280;9205;52.032;4.314;2022-11-18T01:58:42;99483.25;;;10.85
18161;BMP280;9205;52.032;4.314;2022-11-18T02:01:11;99480.53;;;10.89
18161;BMP280;9205;52.032;4.314;2022-11-18T02:03:40;99480.47;;;10.91
18161;BMP280;9205;52.032;4.314;2022-11-18T02:06:11;99485.59;;;10.89
18161;BMP280;9205;52.032;4.314;2022-11-18T02:08:40;99485.81;;;10.85
18161;BMP280;9205;52.032;4.314;2022-11-18T02:11:11;99491.09;;;10.80
18161;BMP280;9205;52.032;4.314;2022-11-18T02:14:02;99497.19;;;10.76
18161;BMP280;9205;52.032;4.314;2022-11-18T02:16:51;99494.47;;;10.81
18161;BMP280;9205;52.032;4.314;2022-11-18T02:19:49;99500.63;;;10.75
18161;BMP280;9205;52.032;4.314;2022-11-18T02:25:54;99508.03;;;10.80
18161;BMP280;9205;52.032;4.314;2022-11-18T02:28:48;99507.47;;;10.73
18161;BMP280;9205;52.032;4.314;2022-11-18T02:31:23;99506.66;;;10.73
18161;BMP280;9205;52.032;4.314;2022-11-18T02:33:58;99512.69;;;10.70
18161;BMP280;9205;52.032;4.314;2022-11-18T02:36:34;99528.06;;;10.67
18161;BMP280;9205;52.032;4.314;2022-11-18T02:39:09;99523.59;;;10.72
18161;BMP280;9205;52.032;4.314;2022-11-18T02:41:41;99518.59;;;10.71
18161;BMP280;9205;52.032;4.314;2022-11-18T02:44:15;99530.34;;;10.73
18161;BMP280;9205;52.032;4.314;2022-11-18T02:46:52;99520.25;;;10.72
18161;BMP280;9205;52.032;4.314;2022-11-18T02:49:27;99525.44;;;10.69
18161;BMP280;9205;52.032;4.314;2022-11-18T02:51:58;99530.53;;;10.69
18161;BMP280;9205;52.032;4.314;2022-11-18T02:54:28;99534.53;;;10.74
18161;BMP280;9205;52.032;4.314;2022-11-18T02:56:57;99530.34;;;10.73
18161;BMP280;9205;52.032;4.314;2022-11-18T02:59:27;99525.13;;;10.76
18161;BMP280;9205;52.032;4.314;2022-11-18T03:01:54;99531.69;;;10.82
18161;BMP280;9205;52.032;4.314;2022-11-18T03:04:23;99532.50;;;10.82
18161;BMP280;9205;52.032;4.314;2022-11-18T03:07:02;99535.78;;;10.84
18161;BMP280;9205;52.032;4.314;2022-11-18T03:09:34;99533.06;;;10.89
18161;BMP280;9205;52.032;4.314;2022-11-18T03:12:15;99536.41;;;10.89
18161;BMP280;9205;52.032;4.314;2022-11-18T03:14:58;99555.59;;;10.96
18161;BMP280;9205;52.032;4.314;2022-11-18T03:17:40;99543.38;;;11.04
18161;BMP280;9205;52.032;4.314;2022-11-18T03:20:22;99539.00;;;11.07
18161;BMP280;9205;52.032;4.314;2022-11-18T03:22:59;99532.06;;;11.11
18161;BMP280;9205;52.032;4.314;2022-11-18T03:25:35;99545.81;;;11.07
18161;BMP280;9205;52.032;4.314;2022-11-18T03:28:21;99544.91;;;11.08
18161;BMP280;9205;52.032;4.314;2022-11-18T03:30:58;99543.94;;;11.10
18161;BMP280;9205;52.032;4.314;2022-11-18T03:33:33;99549.03;;;11.10
18161;BMP280;9205;52.032;4.314;2022-11-18T03:36:05;99560.16;;;11.08
18161;BMP280;9205;52.032;4.314;2022-11-18T03:38:40;99555.06;;;11.08
18161;BMP280;9205;52.032;4.314;2022-11-18T03:41:13;99582.38;;;11.03
18161;BMP280;9205;52.032;4.314;2022-11-18T03:43:48;99575.53;;;11.05
18161;BMP280;9205;52.032;4.314;2022-11-18T03:46:22;99578.94;;;11.04
18161;BMP280;9205;52.032;4.314;2022-11-18T03:48:53;99578.94;;;11.04
18161;BMP280;9205;52.032;4.314;2022-11-18T03:51:25;99589.00;;;11.07
18161;BMP280;9205;52.032;4.314;2022-11-18T03:54:02;99576.47;;;11.02
18161;BMP280;9205;52.032;4.314;2022-11-18T03:56:35;99588.94;;;11.08
18161;BMP280;9205;52.032;4.314;2022-11-18T03:59:11;99584.00;;;11.05
18161;BMP280;9205;52.032;4.314;2022-11-18T04:01:46;99589.13;;;11.04
18161;BMP280;9205;52.032;4.314;2022-11-18T04:04:17;99591.16;;;10.96
18161;BMP280;9205;52.032;4.314;2022-11-18T04:06:48;99597.81;;;10.98
18161;BMP280;9205;52.032;4.314;2022-11-18T04:09:22;99596.94;;;10.99
18161;BMP280;9205;52.032;4.314;2022-11-18T04:11:58;99598.53;;;11.02
18161;BMP280;9205;52.032;4.314;2022-11-18T04:14:31;99600.81;;;11.08
18161;BMP280;9205;52.032;4.314;2022-11-18T04:17:06;99610.97;;;11.08
18161;BMP280;9205;52.032;4.314;2022-11-18T04:19:34;99617.72;;;11.09
18161;BMP280;9205;52.032;4.314;2022-11-18T04:22:01;99611.25;;;11.02
18161;BMP280;9205;52.032;4.314;2022-11-18T04:24:29;99616.44;;;10.99
18161;BMP280;9205;52.032;4.314;2022-11-18T04:26:56;99613.06;;;10.98
18161;BMP280;9205;52.032;4.314;2022-11-18T04:29:23;99628.38;;;10.97
18161;BMP280;9205;52.032;4.314;2022-11-18T04:31:51;99631.81;;;10.96
18161;BMP280;9205;52.032;4.314;2022-11-18T04:34:19;99644.28;;;11.02
18161;BMP280;9205;52.032;4.314;2022-11-18T04:36:47;99637.47;;;11.02
18161;BMP280;9205;52.032;4.314;2022-11-18T04:39:14;99635.69;;;11.04
18161;BMP280;9205;52.032;4.314;2022-11-18T04:41:43;99635.94;;;10.98
18161;BMP280;9205;52.032;4.314;2022-11-18T04:44:23;99642.66;;;10.99
18161;BMP280;9205;52.032;4.314;2022-11-18T04:46:51;99646.88;;;11.00
18161;BMP280;9205;52.032;4.314;2022-11-18T04:49:20;99646.81;;;11.02
18161;BMP280;9205;52.032;4.314;2022-11-18T04:51:48;99658.88;;;10.97
18161;BMP280;9205;52.032;4.314;2022-11-18T04:54:17;99665.50;;;11.01
18161;BMP280;9205;52.032;4.314;2022-11-18T04:56:45;99670.81;;;10.95
18161;BMP280;9205;52.032;4.314;2022-11-18T04:59:15;99676.13;;;10.89
18161;BMP280;9205;52.032;4.314;2022-11-18T05:01:42;99667.53;;;10.93
18161;BMP280;9205;52.032;4.314;2022-11-18T05:04:13;99674.38;;;10.91
18161;BMP280;9205;52.032;4.314;2022-11-18T05:06:42;99679.44;;;10.91
18161;BMP280;9205;52.032;4.314;2022-11-18T05:09:10;99687.88;;;10.91
18161;BMP280;9205;52.032;4.314;2022-11-18T05:11:37;99679.56;;;10.88
18161;BMP280;9205;52.032;4.314;2022-11-18T05:14:24;99694.16;;;10.83
18161;BMP280;9205;52.032;4.314;2022-11-18T05:16:52;99682.97;;;10.87
18161;BMP280;9205;52.032;4.314;2022-11-18T05:19:20;99687.25;;;10.87
18161;BMP280;9205;52.032;4.314;2022-11-18T05:21:49;99689.88;;;10.85
18161;BMP280;9205;52.032;4.314;2022-11-18T05:24:16;99688.50;;;10.77
18161;BMP280;9205;52.032;4.314;2022-11-18T05:26:59;99695.94;;;10.81
18161;BMP280;9205;52.032;4.314;2022-11-18T05:29:26;99697.06;;;10.74
18161;BMP280;9205;52.032;4.314;2022-11-18T05:31:53;99695.41;;;10.73
18161;BMP280;9205;52.032;4.314;2022-11-18T05:34:21;99697.91;;;10.75
18161;BMP280;9205;52.032;4.314;2022-11-18T05:36:50;99702.09;;;10.76
18161;BMP280;9205;52.032;4.314;2022-11-18T05:39:17;99704.63;;;10.76
18161;BMP280;9205;52.032;4.314;2022-11-18T05:41:45;99691.88;;;10.77
18161;BMP280;9205;52.032;4.314;2022-11-18T05:44:30;99703.00;;;10.75
18161;BMP280;9205;52.032;4.314;2022-11-18T05:46:57;99709.78;;;10.74
18161;BMP280;9205;52.032;4.314;2022-11-18T05:49:25;99713.38;;;10.69
18161;BMP280;9205;52.032;4.314;2022-11-18T05:51:53;99724.25;;;10.72
18161;BMP280;9205;52.032;4.314;2022-11-18T05:54:21;99716.56;;;10.74
18161;BMP280;9205;52.032;4.314;2022-11-18T05:56:49;99711.34;;;10.77
18161;BMP280;9205;52.032;4.314;2022-11-18T05:59:16;99723.44;;;10.72
18161;BMP280;9205;52.032;4.314;2022-11-18T06:01:47;99725.31;;;10.67
18161;BMP280;9205;52.032;4.314;2022-11-18T06:04:20;99731.28;;;10.66
18161;BMP280;9205;52.032;4.314;2022-11-18T06:06:49;99730.50;;;10.64
18161;BMP280;9205;52.032;4.314;2022-11-18T06:09:23;99742.25;;;10.66
18161;BMP280;9205;52.032;4.314;2022-11-18T06:11:56;99741.38;;;10.67
18161;BMP280;9205;52.032;4.314;2022-11-18T06:14:33;99744.00;;;10.66
18161;BMP280;9205;52.032;4.314;2022-11-18T06:17:06;99741.44;;;10.66
18161;BMP280;9205;52.032;4.314;2022-11-18T06:19:35;99743.31;;;10.61
18161;BMP280;9205;52.032;4.314;2022-11-18T06:22:03;99758.56;;;10.61
18161;BMP280;9205;52.032;4.314;2022-11-18T06:24:32;99753.47;;;10.61
18161;BMP280;9205;52.032;4.314;2022-11-18T06:27:00;99767.72;;;10.65
18161;BMP280;9205;52.032;4.314;2022-11-18T06:29:29;99764.22;;;10.67
18161;BMP280;9205;52.032;4.314;2022-11-18T06:31:57;99774.38;;;10.67
18161;BMP280;9205;52.032;4.314;2022-11-18T06:34:24;99773.50;;;10.68
18161;BMP280;9205;52.032;4.314;2022-11-18T06:36:51;99779.53;;;10.66
18161;BMP280;9205;52.032;4.314;2022-11-18T06:39:19;99785.44;;;10.66
18161;BMP280;9205;52.032;4.314;2022-11-18T06:41:48;99777.00;;;10.66
18161;BMP280;9205;52.032;4.314;2022-11-18T06:44:15;99789.81;;;10.63
18161;BMP280;9205;52.032;4.314;2022-11-18T06:46:41;99790.97;;;10.54
18161;BMP280;9205;52.032;4.314;2022-11-18T06:49:26;99798.31;;;10.62
18161;BMP280;9205;52.032;4.314;2022-11-18T06:51:53;99796.72;;;10.59
18161;BMP280;9205;52.032;4.314;2022-11-18T06:54:21;99801.56;;;10.65
18161;BMP280;9205;52.032;4.314;2022-11-18T06:56:50;99811.78;;;10.64
18161;BMP280;9205;52.032;4.314;2022-11-18T06:59:17;99815.97;;;10.65
18161;BMP280;9205;52.032;4.314;2022-11-18T07:01:48;99814.09;;;10.70
18161;BMP280;9205;52.032;4.314;2022-11-18T07:04:18;99818.44;;;10.66
18161;BMP280;9205;52.032;4.314;2022-11-18T07:06:45;99816.59;;;10.71
18161;BMP280;9205;52.032;4.314;2022-11-18T07:09:13;99822.53;;;10.70
18161;BMP280;9205;52.032;4.314;2022-11-18T07:11:40;99822.41;;;10.73
18161;BMP280;9205;52.032;4.314;2022-11-18T07:14:09;99832.47;;;10.76
18161;BMP280;9205;52.032;4.314;2022-11-18T07:16:37;99832.56;;;10.73
18161;BMP280;9205;52.032;4.314;2022-11-18T07:19:09;99844.41;;;10.74
18161;BMP280;9205;52.032;4.314;2022-11-18T07:21:37;99841.75;;;10.77
18161;BMP280;9205;52.032;4.314;2022-11-18T07:24:07;99834.16;;;10.76
18161;BMP280;9205;52.032;4.314;2022-11-18T07:26:35;99835.88;;;10.75
18161;BMP280;9205;52.032;4.314;2022-11-18T07:29:02;99851.13;;;10.75
18161;BMP280;9205;52.032;4.314;2022-11-18T07:31:31;99868.91;;;10.75
18161;BMP280;9205;52.032;4.314;2022-11-18T07:34:00;99857.88;;;10.76
18161;BMP280;9205;52.032;4.314;2022-11-18T07:36:28;99869.06;;;10.71
18161;BMP280;9205;52.032;4.314;2022-11-18T07:38:58;99867.38;;;10.71
18161;BMP280;9205;52.032;4.314;2022-11-18T07:41:28;99872.41;;;10.73
18161;BMP280;9205;52.032;4.314;2022-11-18T07:43:57;99876.59;;;10.74
18161;BMP280;9205;52.032;4.314;2022-11-18T07:46:28;99879.13;;;10.74
18161;BMP280;9205;52.032;4.314;2022-11-18T07:49:02;99886.69;;;10.75
18161;BMP280;9205;52.032;4.314;2022-11-18T07:51:32;99896.03;;;10.75
18161;BMP280;9205;52.032;4.314;2022-11-18T07:54:00;99900.28;;;10.74
18161;BMP280;9205;52.032;4.314;2022-11-18T07:56:27;99907.00;;;10.75
18161;BMP280;9205;52.032;4.314;2022-11-18T07:58:55;99903.38;;;10.82
18161;BMP280;9205;52.032;4.314;2022-11-18T08:01:25;99909.06;;;10.89
18161;BMP280;9205;52.032;4.314;2022-11-18T08:03:53;99914.94;;;10.89
18161;BMP280;9205;52.032;4.314;2022-11-18T08:06:22;99916.63;;;10.90
18161;BMP280;9205;52.032;4.314;2022-11-18T08:08:50;99915.50;;;10.97
18161;BMP280;9205;52.032;4.314;2022-11-18T08:11:18;99921.47;;;10.96
18161;BMP280;9205;52.032;4.314;2022-11-18T08:13:46;99928.34;;;10.94
18161;BMP280;9205;52.032;4.314;2022-11-18T08:16:16;99929.75;;;11.01
18161;BMP280;9205;52.032;4.314;2022-11-18T08:18:44;99928.88;;;11.02
18161;BMP280;9205;52.032;4.314;2022-11-18T08:21:13;99938.97;;;11.03
18161;BMP280;9205;52.032;4.314;2022-11-18T08:23:42;99935.59;;;11.03
18161;BMP280;9205;52.032;4.314;2022-11-18T08:26:12;99938.75;;;11.09
18161;BMP280;9205;52.032;4.314;2022-11-18T08:28:40;99945.56;;;11.09
18161;BMP280;9205;52.032;4.314;2022-11-18T08:31:12;99944.47;;;11.14
18161;BMP280;9205;52.032;4.314;2022-11-18T08:33:40;99947.16;;;11.11
18161;BMP280;9205;52.032;4.314;2022-11-18T08:36:11;99955.66;;;11.10
18161;BMP280;9205;52.032;4.314;2022-11-18T08:38:39;99944.38;;;11.17
18161;BMP280;9205;52.032;4.314;2022-11-18T08:41:10;99954.38;;;11.22
18161;BMP280;9205;52.032;4.314;2022-11-18T08:43:41;99961.13;;;11.23
18161;BMP280;9205;52.032;4.314;2022-11-18T08:46:08;99964.44;;;11.25
18161;BMP280;9205;52.032;4.314;2022-11-18T08:48:35;99955.91;;;11.26
18161;BMP280;9205;52.032;4.314;2022-11-18T08:51:03;99964.47;;;11.23
18161;BMP280;9205;52.032;4.314;2022-11-18T08:53:30;99968.50;;;11.29
18161;BMP280;9205;52.032;4.314;2022-11-18T08:56:00;99971.94;;;11.28
18161;BMP280;9205;52.032;4.314;2022-11-18T08:58:28;99978.56;;;11.32
18161;BMP280;9205;52.032;4.314;2022-11-18T09:00:56;99979.56;;;11.28
18161;BMP280;9205;52.032;4.314;2022-11-18T09:03:23;99981.84;;;11.35
18161;BMP280;9205;52.032;4.314;2022-11-18T09:05:50;99985.31;;;11.33
18161;BMP280;9205;52.032;4.314;2022-11-18T09:08:18;99985.97;;;11.38
18161;BMP280;9205;52.032;4.314;2022-11-18T09:10:46;99981.84;;;11.35
18161;BMP280;9205;52.032;4.314;2022-11-18T09:13:14;99985.09;;;11.39
18161;BMP280;9205;52.032;4.314;2022-11-18T09:15:42;99981.53;;;11.43
18161;BMP280;9205;52.032;4.314;2022-11-18T09:18:09;99991.69;;;11.43
18161;BMP280;9205;52.032;4.314;2022-11-18T09:20:38;99997.50;;;11.46
18161;BMP280;9205;52.032;4.314;2022-11-18T09:23:06;99997.25;;;11.54
18161;BMP280;9205;52.032;4.314;2022-11-18T09:25:33;99990.25;;;11.59
18161;BMP280;9205;52.032;4.314;2022-11-18T09:28:00;99986.78;;;11.61
18161;BMP280;9205;52.032;4.314;2022-11-18T09:30:27;99990.97;;;11.62
18161;BMP280;9205;52.032;4.314;2022-11-18T09:32:56;99996.78;;;11.66
18161;BMP280;9205;52.032;4.314;2022-11-18T09:35:23;99990.72;;;11.68
18161;BMP280;9205;52.032;4.314;2022-11-18T09:37:51;99993.25;;;11.70
18161;BMP280;9205;52.032;4.314;2022-11-18T09:40:18;100005.97;;;11.70
18161;BMP280;9205;52.032;4.314;2022-11-18T09:42:58;100012.56;;;11.73
18161;BMP280;9205;52.032;4.314;2022-11-18T09:45:55;100018.53;;;11.72
18161;BMP280;9205;52.032;4.314;2022-11-18T09:48:27;100016.91;;;11.72
18161;BMP280;9205;52.032;4.314;2022-11-18T09:51:10;100028.59;;;11.75
18161;BMP280;9205;52.032;4.314;2022-11-18T09:53:40;100030.38;;;11.73
18161;BMP280;9205;52.032;4.314;2022-11-18T09:56:15;100043.22;;;11.71
18161;BMP280;9205;52.032;4.314;2022-11-18T09:58:44;100041.25;;;11.77
18161;BMP280;9205;52.032;4.314;2022-11-18T10:01:16;100043.88;;;11.75
18161;BMP280;9205;52.032;4.314;2022-11-18T10:03:46;100051.28;;;11.81
18161;BMP280;9205;52.032;4.314;2022-11-18T10:06:19;100052.75;;;11.87
18161;BMP280;9205;52.032;4.314;2022-11-18T10:09:02;100048.69;;;11.83
18161;BMP280;9205;52.032;4.314;2022-11-18T10:12:06;100057.25;;;11.80
18161;BMP280;9205;52.032;4.314;2022-11-18T10:15:02;100065.75;;;11.79
18161;BMP280;9205;52.032;4.314;2022-11-18T10:17:45;100062.22;;;11.83
18161;BMP280;9205;52.032;4.314;2022-11-18T10:20:30;100067.50;;;11.79
18161;BMP280;9205;52.032;4.314;2022-11-18T10:23:08;100067.41;;;11.80
18161;BMP280;9205;52.032;4.314;2022-11-18T10:25:37;100069.16;;;11.80
18161;BMP280;9205;52.032;4.314;2022-11-18T10:28:21;100068.13;;;11.84
18161;BMP280;9205;52.032;4.314;2022-11-18T10:30:51;100074.78;;;11.88
18161;BMP280;9205;52.032;4.314;2022-11-18T10:33:30;100068.72;;;11.90
18161;BMP280;9205;52.032;4.314;2022-11-18T10:36:24;100072.75;;;11.96
18161;BMP280;9205;52.032;4.314;2022-11-18T10:39:11;100072.84;;;11.94
18161;BMP280;9205;52.032;4.314;2022-11-18T10:41:46;100079.50;;;11.97
18161;BMP280;9205;52.032;4.314;2022-11-18T10:44:29;100070.09;;;11.99
18161;BMP280;9205;52.032;4.314;2022-11-18T10:47:26;100078.38;;;12.04
18161;BMP280;9205;52.032;4.314;2022-11-18T10:49:57;100077.78;;;11.97
18161;BMP280;9205;52.032;4.314;2022-11-18T10:52:28;100084.38;;;12.03
18161;BMP280;9205;52.032;4.314;2022-11-18T10:55:19;100084.97;;;12.09
18161;BMP280;9205;52.032;4.314;2022-11-18T10:57:50;100089.16;;;12.10
18161;BMP280;9205;52.032;4.314;2022-11-18T11:00:42;100091.56;;;12.13
18161;BMP280;9205;52.032;4.314;2022-11-18T11:03:28;100086.38;;;12.16
18161;BMP280;9205;52.032;4.314;2022-11-18T11:06:29;100095.16;;;12.09
18161;BMP280;9205;52.032;4.314;2022-11-18T11:09:03;100100.88;;;12.14
18161;BMP280;9205;52.032;4.314;2022-11-18T11:11:34;100094.13;;;12.13
18161;BMP280;9205;52.032;4.314;2022-11-18T11:14:26;100098.88;;;12.22
18161;BMP280;9205;52.032;4.314;2022-11-18T11:17:04;100095.19;;;12.29
18161;BMP280;9205;52.032;4.314;2022-11-18T11:19:50;100105.47;;;12.26
18161;BMP280;9205;52.032;4.314;2022-11-18T11:22:19;100098.06;;;12.22
18161;BMP280;9205;52.032;4.314;2022-11-18T11:24:47;100104.84;;;12.21
18161;BMP280;9205;52.032;4.314;2022-11-18T11:27:34;100103.72;;;12.28
18161;BMP280;9205;52.032;4.314;2022-11-18T11:30:17;100111.50;;;12.25
18161;BMP280;9205;52.032;4.314;2022-11-18T11:33:20;100097.63;;;12.32
18161;BMP280;9205;52.032;4.314;2022-11-18T11:36:19;100113.72;;;12.33
18161;BMP280;9205;52.032;4.314;2022-11-18T11:38:57;100109.56;;;12.30
18161;BMP280;9205;52.032;4.314;2022-11-18T11:41:30;100110.22;;;12.35
18161;BMP280;9205;52.032;4.314;2022-11-18T11:44:28;100109.16;;;12.41
18161;BMP280;9205;52.032;4.314;2022-11-18T11:47:13;100112.47;;;12.43
18161;BMP280;9205;52.032;4.314;2022-11-18T11:50:17;100108.97;;;12.45
18161;BMP280;9205;52.032;4.314;2022-11-18T11:53:03;100115.06;;;12.41
18161;BMP280;9205;52.032;4.314;2022-11-18T11:55:45;100125.13;;;12.44
18161;BMP280;9205;52.032;4.314;2022-11-18T11:58:59;100120.75;;;12.48
18161;BMP280;9205;52.032;4.314;2022-11-18T12:01:41;100118.19;;;12.48
18161;BMP280;9205;52.032;4.314;2022-11-18T12:04:27;100128.47;;;12.46
18161;BMP280;9205;52.032;4.314;2022-11-18T12:06:57;100124.84;;;12.51
18161;BMP280;9205;52.032;4.314;2022-11-18T12:09:38;100123.13;;;12.52
18161;BMP280;9205;52.032;4.314;2022-11-18T12:12:21;100127.69;;;12.44
18161;BMP280;9205;52.032;4.314;2022-11-18T12:15:27;100116.72;;;12.42
18161;BMP280;9205;52.032;4.314;2022-11-18T12:18:09;100136.16;;;12.45
18161;BMP280;9205;52.032;4.314;2022-11-18T12:20:43;100126.28;;;12.37
18161;BMP280;9205;52.032;4.314;2022-11-18T12:23:18;100130.34;;;12.41
18161;BMP280;9205;52.032;4.314;2022-11-18T12:26:01;100132.66;;;12.47
18161;BMP280;9205;52.032;4.314;2022-11-18T12:28:36;100134.44;;;12.45
18161;BMP280;9205;52.032;4.314;2022-11-18T12:31:35;100139.47;;;12.47
18161;BMP280;9205;52.032;4.314;2022-11-18T12:34:28;100137.75;;;12.47
18161;BMP280;9205;52.032;4.314;2022-11-18T12:37:43;100143.22;;;12.38
18161;BMP280;9205;52.032;4.314;2022-11-18T12:40:39;100148.06;;;12.44
18161;BMP280;9205;52.032;4.314;2022-11-18T12:44:03;100144.56;;;12.47
18161;BMP280;9205;52.032;4.314;2022-11-18T12:46:55;100143.91;;;12.42
18161;BMP280;9205;52.032;4.314;2022-11-18T12:50:09;100152.38;;;12.42
18161;BMP280;9205;52.032;4.314;2022-11-18T12:52:53;100146.66;;;12.37
18161;BMP280;9205;52.032;4.314;2022-11-18T12:55:29;100149.84;;;12.42
18161;BMP280;9205;52.032;4.314;2022-11-18T12:57:58;100154.22;;;12.39
18161;BMP280;9205;52.032;4.314;2022-11-18T13:00:32;100152.09;;;12.49
18161;BMP280;9205;52.032;4.314;2022-11-18T13:03:26;100159.13;;;12.43
18161;BMP280;9205;52.032;4.314;2022-11-18T13:06:03;100160.91;;;12.41
18161;BMP280;9205;52.032;4.314;2022-11-18T13:08:31;100159.44;;;12.36
18161;BMP280;9205;52.032;4.314;2022-11-18T13:11:14;100173.63;;;12.41
18161;BMP280;9205;52.032;4.314;2022-11-18T13:14:04;100167.66;;;12.42
18161;BMP280;9205;52.032;4.314;2022-11-18T13:16:50;100173.44;;;12.47
18161;BMP280;9205;52.032;4.314;2022-11-18T13:19:36;100173.63;;;12.41
18161;BMP280;9205;52.032;4.314;2022-11-18T13:22:15;100187.16;;;12.43
18161;BMP280;9205;52.032;4.314;2022-11-18T13:25:00;100185.09;;;12.31
18161;BMP280;9205;52.032;4.314;2022-11-18T13:27:41;100182.53;;;12.31
18161;BMP280;9205;52.032;4.314;2022-11-18T13:30:15;100190.28;;;12.28
18161;BMP280;9205;52.032;4.314;2022-11-18T13:32:45;100178.22;;;12.33
18161;BMP280;9205;52.032;4.314;2022-11-18T13:35:17;100181.88;;;12.26
18161;BMP280;9205;52.032;4.314;2022-11-18T13:37:50;100184.56;;;12.23
18161;BMP280;9205;52.032;4.314;2022-11-18T13:40:22;100192.03;;;12.28
18161;BMP280;9205;52.032;4.314;2022-11-18T13:42:50;100190.53;;;12.22
18161;BMP280;9205;52.032;4.314;2022-11-18T13:45:19;100203.03;;;12.28
18161;BMP280;9205;52.032;4.314;2022-11-18T13:47:51;100204.22;;;12.20
18161;BMP280;9205;52.032;4.314;2022-11-18T13:50:25;100209.47;;;12.15
18161;BMP280;9205;52.032;4.314;2022-11-18T13:53:16;100205.81;;;12.22
18161;BMP280;9205;52.032;4.314;2022-11-18T13:55:49;100205.91;;;12.19
18161;BMP280;9205;52.032;4.314;2022-11-18T13:58:35;100211.78;;;12.21
18161;BMP280;9205;52.032;4.314;2022-11-18T14:01:06;100206.16;;;12.13
18161;BMP280;9205;52.032;4.314;2022-11-18T14:03:49;100202.28;;;12.03
18161;BMP280;9205;52.032;4.314;2022-11-18T14:06:30;100204.97;;;11.99
18161;BMP280;9205;52.032;4.314;2022-11-18T14:09:11;100203.19;;;12.02
18161;BMP280;9205;52.032;4.314;2022-11-18T14:11:43;100208.94;;;12.07
18161;BMP280;9205;52.032;4.314;2022-11-18T14:14:31;100213.84;;;12.12
18161;BMP280;9205;52.032;4.314;2022-11-18T14:17:16;100219.53;;;12.18
18161;BMP280;9205;52.032;4.314;2022-11-18T14:19:44;100220.47;;;12.16
18161;BMP280;9205;52.032;4.314;2022-11-18T14:22:17;100220.53;;;12.14
18161;BMP280;9205;52.032;4.314;2022-11-18T14:24:54;100218.81;;;12.15
18161;BMP280;9205;52.032;4.314;2022-11-18T14:27:43;100228.81;;;12.19
18161;BMP280;9205;52.032;4.314;2022-11-18T14:30:29;100224.84;;;12.12
18161;BMP280;9205;52.032;4.314;2022-11-18T14:33:15;100230.81;;;12.11
18161;BMP280;9205;52.032;4.314;2022-11-18T14:35:53;100240.28;;;12.08
18161;BMP280;9205;52.032;4.314;2022-11-18T14:38:30;100236.38;;;11.99
18161;BMP280;9205;52.032;4.314;2022-11-18T14:41:08;100243.34;;;11.94
18161;BMP280;9205;52.032;4.314;2022-11-18T14:43:39;100247.44;;;11.98
18161;BMP280;9205;52.032;4.314;2022-11-18T14:46:15;100244.72;;;12.03
18161;BMP280;9205;52.032;4.314;2022-11-18T14:48:45;100249.75;;;12.04
18161;BMP280;9205;52.032;4.314;2022-11-18T14:51:14;100252.47;;;12.00
18161;BMP280;9205;52.032;4.314;2022-11-18T14:53:49;100245.78;;;11.97
18161;BMP280;9205;52.032;4.314;2022-11-18T14:56:24;100253.31;;;12.00
18161;BMP280;9205;52.032;4.314;2022-11-18T14:58:52;100251.75;;;11.96
18161;BMP280;9205;52.032;4.314;2022-11-18T15:01:19;100265.34;;;11.95